Date,TemperatureHighF,TemperatureAvgF,TemperatureLowF,DewpointHighF,DewpointAvgF,DewpointLowF,HumidityHigh,HumidityAvg,HumidityLow,PressureMaxIn,PressureMinIn,WindSpeedMaxMPH,WindSpeedAvgMPH,GustSpeedMaxMPH,PrecipitationSumIn
2013-1-25,54.7,51.5,49.5,51.3,46.9,43.7,88,84,71,30.27,30.17,1,-97,1,0.01
2013-1-26,75.6,61.2,45.9,67.5,52.8,40.8,85,75,56,30.24,30.13,1,-254,1,0.00
2013-1-27,77.0,63.0,49.8,69.8,52.9,45.5,89,72,50,30.29,30.18,5,-131,5,0.00
2013-1-28,79.5,77.3,73.0,65.1,61.5,58.6,70,59,51,30.29,30.17,6,-200,7,0.00
2013-1-29,67.3,64.5,57.6,64.2,61.1,53.1,90,89,84,30.19,30.05,6,-352,6,0.00
2013-1-30,70.0,70.0,70.0,61.3,61.3,61.3,74,74,74,29.95,29.94,1,-699,1,0.00
2013-1-31,57.6,54.1,50.5,52.2,48.8,41.4,85,82,70,30.13,29.92,1,-202,1,0.05
2013-2-1,65.1,62.4,52.5,38.1,32.6,25.3,37,33,22,30.34,30.22,3,-526,3,0.00
2013-2-2,54.7,46.2,36.0,41.7,35.9,29.5,78,68,56,30.31,30.27,2,-209,3,0.00
2013-2-3,50.4,50.4,50.4,45.7,45.7,45.7,84,84,84,30.16,30.15,0,-749,0,0.00
2013-2-4,68.4,59.3,38.8,56.1,49.0,33.8,82,69,65,30.11,30.01,1,-387,1,0.00
2013-2-5,77.4,61.1,37.9,67.8,46.5,32.4,85,63,39,30.07,29.96,2,-79,5,0.00
2013-2-6,73.6,71.8,69.4,60.6,58.5,54.3,70,63,56,30.07,30.01,1,-362,1,0.00
2013-2-7,78.4,69.4,59.5,66.6,60.2,55.6,87,74,53,30.01,29.80,8,-189,8,0.05
2013-2-8,75.4,65.2,58.6,71.6,61.1,54.9,88,87,84,29.99,29.84,3,-13,3,0.02
2013-2-9,73.0,59.9,49.5,68.0,54.7,46.0,89,84,47,30.18,30.07,8,-231,8,0.01
2013-2-10,78.3,67.0,50.7,64.8,54.7,46.0,86,68,46,30.23,30.09,7,-84,7,0.00
2013-2-11,83.5,74.5,58.3,70.5,60.5,52.2,80,64,44,30.16,30.02,5,-271,5,0.00
2013-2-12,84.0,73.2,60.6,77.0,62.9,56.1,91,73,50,30.04,29.87,3,-242,5,0.00
2013-2-13,77.7,69.0,62.6,66.9,63.9,59.2,89,84,67,29.93,29.78,6,-310,11,0.26
2013-2-14,62.4,58.3,52.3,59.2,54.7,49.5,90,88,78,30.04,29.89,2,-16,2,0.23
2013-2-15,67.8,56.5,46.2,54.5,47.8,42.8,91,76,41,30.07,29.92,2,-32,2,0.02
2013-2-16,65.8,60.2,47.5,50.0,40.3,25.5,59,48,40,30.12,29.92,2,-362,7,0.00
2013-2-17,53.8,48.7,41.5,25.7,19.6,11.5,42,32,21,30.31,30.13,6,-538,6,0.00
2013-2-18,67.3,47.0,29.3,44.2,29.8,22.3,75,56,31,30.36,30.20,3,-219,5,0.00
2013-2-19,79.9,74.9,63.1,59.2,53.6,48.7,71,49,39,30.14,30.01,3,-137,6,0.00
2013-2-20,72.9,66.4,58.3,56.5,51.0,43.5,85,60,44,30.11,29.99,2,-200,3,0.00
2013-2-21,82.4,76.2,52.5,61.5,57.6,43.7,75,53,46,30.09,29.94,3,-98,3,0.00
2013-2-22,85.3,78.8,67.5,67.5,61.6,55.2,83,56,44,30.02,29.92,6,-92,7,0.00
2013-2-23,70.0,67.0,65.8,66.2,62.7,61.0,88,86,83,29.95,29.90,0,-91,1,0.00
2013-2-24,78.8,73.1,67.1,69.4,64.7,60.6,89,76,62,29.92,29.85,6,-16,7,0.12
2013-2-25,85.6,73.0,64.9,69.1,61.8,57.6,90,71,39,29.87,29.71,8,0,11,0.00
2013-2-26,75.4,68.7,62.1,67.8,62.3,56.8,90,80,61,29.82,29.64,11,0,12,0.74
2013-2-27,75.6,62.6,52.2,57.9,50.4,45.1,83,66,38,29.95,29.82,6,0,8,0.00
2013-2-28,73.9,58.7,47.3,57.7,46.7,42.6,87,67,36,29.97,29.86,11,0,13,0.00
2013-3-1,66.4,53.9,46.4,43.5,38.0,29.3,77,57,27,29.99,29.88,10,0,11,0.00
2013-3-2,59.0,49.9,42.6,36.1,31.7,26.1,67,50,31,30.03,29.94,16,1,20,0.00
2013-3-3,50.4,42.8,34.3,31.1,28.0,25.3,71,56,45,30.13,29.98,18,0,18,0.00
2013-3-4,68.4,47.8,30.6,38.1,28.3,22.3,85,54,20,30.22,30.08,7,0,9,0.00
2013-3-5,74.5,56.9,36.9,54.7,44.1,31.8,85,65,39,30.16,29.95,12,2,16,0.00
2013-3-6,66.0,56.6,45.1,59.9,39.0,29.1,83,54,33,30.12,29.89,13,2,18,0.01
2013-3-7,70.5,50.9,37.9,39.4,33.8,28.8,78,55,24,30.21,30.09,9,0,11,0.00
2013-3-8,79.0,55.4,38.1,48.9,37.6,28.9,88,58,17,30.20,30.07,7,0,9,0.00
2013-3-9,77.0,59.2,42.3,50.0,43.1,37.4,86,60,27,30.20,30.09,9,0,11,0.00
2013-3-10,78.3,65.1,51.3,55.6,50.7,46.0,85,62,38,30.14,30.01,11,1,14,0.00
2013-3-11,78.3,65.2,51.3,59.0,53.2,46.6,87,67,43,30.07,29.84,10,0,13,0.00
2013-3-12,68.4,62.8,53.4,62.4,57.2,48.6,91,82,70,30.00,29.80,10,1,13,0.11
2013-3-13,77.5,58.6,46.2,48.6,40.7,31.3,84,57,19,30.16,30.00,10,0,13,0.00
2013-3-14,70.3,54.9,42.4,45.0,31.8,23.5,77,46,19,30.26,30.13,5,0,11,0.00
2013-3-15,76.1,54.0,37.6,48.2,36.3,31.6,86,57,24,30.26,30.09,7,0,12,0.00
2013-3-16,79.2,58.3,42.4,54.7,40.2,34.3,88,58,23,30.14,30.02,6,1,13,0.00
2013-3-17,76.6,61.2,47.5,58.3,49.6,40.1,90,69,35,30.09,29.95,7,0,11,0.05
2013-3-18,78.3,67.6,59.2,64.4,60.0,55.6,91,78,56,30.01,29.85,6,0,11,0.06
2013-3-19,85.3,70.1,61.9,64.6,59.4,54.1,91,71,35,29.99,29.86,6,0,10,0.00
2013-3-20,77.7,65.8,55.9,61.5,57.6,51.8,87,76,51,29.94,29.75,6,0,11,0.15
2013-3-21,72.3,56.0,42.3,52.2,41.2,26.6,90,63,19,29.96,29.84,11,0,12,0.13
2013-3-22,78.3,59.6,43.0,55.6,44.3,36.3,86,61,29,29.99,29.84,7,0,11,0.01
2013-3-23,82.2,70.7,58.6,70.5,62.2,49.1,89,75,60,29.94,29.73,14,1,22,0.01
2013-3-24,78.3,71.7,64.8,70.0,66.1,60.8,89,83,74,29.77,29.57,27,-10,27,0.04
2013-3-25,70.2,60.6,51.3,61.3,43.9,31.5,89,57,27,30.01,29.67,12,1,16,0.01
2013-3-26,57.6,50.0,41.4,40.1,28.2,20.7,69,44,27,30.22,30.00,17,1,19,0.00
2013-3-27,63.1,47.7,34.7,37.4,31.5,26.2,75,56,27,30.30,30.19,10,0,13,0.00
2013-3-28,75.6,54.7,37.2,45.3,35.3,27.3,85,55,18,30.28,30.14,8,0,11,0.00
2013-3-29,78.3,58.1,40.3,51.8,37.8,29.3,86,55,19,30.31,30.14,7,0,8,0.00
2013-3-30,79.0,60.3,43.2,54.7,45.0,38.3,87,61,28,30.23,30.08,12,1,12,0.00
2013-3-31,82.4,65.8,53.2,54.9,50.6,43.0,84,62,26,30.12,29.95,13,1,13,0.00
2013-4-1,81.0,68.1,55.8,64.2,58.2,51.3,88,72,49,29.97,29.90,16,1,17,0.00
2013-4-2,87.4,70.3,55.0,64.4,52.1,42.6,90,59,23,30.06,29.95,7,0,8,0.00
2013-4-3,84.0,69.8,59.0,64.4,58.2,46.0,86,68,46,30.05,29.91,11,1,16,0.18
2013-4-4,74.1,69.4,65.1,67.1,63.8,59.9,90,83,65,29.95,29.83,12,1,13,0.20
2013-4-5,77.2,67.0,56.8,63.9,58.7,50.7,87,76,45,29.99,29.75,11,1,12,0.00
2013-4-6,78.6,63.5,48.7,55.2,51.2,44.4,87,67,42,30.10,29.97,11,1,13,0.00
2013-4-7,83.5,67.9,53.4,62.6,53.4,49.3,88,63,33,30.13,30.01,7,0,10,0.00
2013-4-8,86.5,72.1,57.7,63.9,54.1,47.8,86,57,28,30.09,29.99,8,0,11,0.00
2013-4-9,85.5,72.4,59.9,66.4,58.3,54.3,86,63,39,30.12,30.03,10,1,11,0.00
2013-4-10,88.0,73.4,57.6,65.7,58.0,52.2,87,62,34,30.08,29.92,10,0,11,0.00
2013-4-11,88.3,78.5,70.3,69.4,66.8,64.0,87,69,46,29.94,29.75,11,1,13,0.00
2013-4-12,81.9,75.5,70.2,70.5,68.3,64.8,87,79,64,29.86,29.75,14,1,17,0.01
2013-4-13,91.0,75.6,66.9,65.5,59.0,47.1,88,61,24,29.94,29.83,7,0,7,0.00
2013-4-14,85.3,72.6,64.0,69.4,61.9,53.1,80,70,55,29.94,29.79,13,1,19,0.01
2013-4-15,92.8,77.0,64.8,65.7,61.6,58.5,82,62,36,30.03,29.81,8,0,9,0.01
2013-4-16,91.6,76.7,64.9,70.0,63.4,59.4,88,66,40,30.10,30.00,11,1,13,0.00
2013-4-17,85.6,74.1,64.8,68.9,61.7,57.4,89,68,40,30.12,29.99,10,1,11,0.00
2013-4-18,89.2,76.7,64.0,68.4,61.9,59.0,88,63,38,30.01,29.89,7,0,10,0.00
2013-4-19,86.7,76.6,69.4,74.3,68.1,63.5,90,76,53,29.96,29.85,17,1,18,0.93
2013-4-20,74.8,60.2,54.7,68.7,55.9,51.4,89,86,80,30.14,29.92,6,0,8,0.60
2013-4-21,75.4,65.0,55.6,65.3,59.3,52.3,89,82,70,30.12,30.00,6,1,11,0.57
2013-4-22,71.8,65.8,61.5,65.5,61.5,56.7,92,86,78,30.06,29.98,8,0,13,0.21
2013-4-23,82.4,69.4,57.4,63.0,56.9,53.6,89,67,41,30.08,29.99,7,1,12,0.00
2013-4-24,89.1,70.6,53.8,63.5,55.5,47.8,87,63,25,30.10,30.01,5,0,11,0.00
2013-4-25,87.3,72.9,60.1,66.7,59.9,55.6,88,66,37,30.16,30.06,7,0,10,0.00
2013-4-26,88.2,75.1,63.1,66.6,61.3,56.5,87,65,35,30.19,30.10,7,1,11,0.00
2013-4-27,86.5,74.3,63.0,68.0,60.3,56.3,87,64,37,30.19,30.03,7,1,12,0.00
2013-4-28,85.3,73.5,61.5,66.9,60.2,56.5,86,65,39,30.09,29.91,10,1,14,0.00
2013-4-29,85.6,74.1,66.4,66.0,62.7,58.8,83,69,47,29.98,29.85,7,0,10,0.00
2013-4-30,91.8,74.7,66.4,67.1,62.7,56.7,87,70,32,29.96,29.85,4,0,13,0.10
2013-5-1,77.7,70.1,66.7,68.4,65.0,61.5,90,84,68,29.98,29.89,11,1,12,0.66
2013-5-2,73.8,69.2,66.4,67.8,65.1,63.7,92,87,78,29.94,29.78,12,1,13,0.04
2013-5-3,83.5,71.5,67.1,69.3,65.2,61.7,90,81,60,29.78,29.69,12,1,14,0.00
2013-5-4,82.2,72.3,67.1,68.5,64.8,62.1,89,78,58,29.73,29.64,8,1,13,0.01
2013-5-5,79.9,67.6,56.8,64.9,50.5,42.6,87,57,31,29.87,29.73,13,1,18,0.00
2013-5-6,72.1,64.5,56.3,56.7,51.6,48.0,84,64,45,29.97,29.83,12,1,14,0.00
2013-5-7,76.6,64.3,52.5,59.7,53.3,47.3,87,69,44,30.00,29.91,10,1,16,0.00
2013-5-8,82.2,68.5,55.8,64.4,56.4,51.6,89,68,41,30.09,29.97,8,1,12,0.00
2013-5-9,88.3,71.8,57.7,67.3,58.4,53.6,89,66,33,30.10,30.02,6,0,8,0.00
2013-5-10,89.8,74.6,59.5,69.6,61.5,55.4,88,66,39,30.09,29.94,9,1,12,0.00
2013-5-11,87.8,74.8,66.4,70.2,65.1,59.7,87,73,50,30.00,29.93,10,1,18,0.00
2013-5-12,87.1,74.8,64.8,69.4,63.8,61.2,90,71,46,29.99,29.89,8,1,13,0.00
2013-5-13,86.2,72.3,58.8,64.2,53.8,41.5,86,58,22,30.09,29.95,6,0,8,0.00
2013-5-14,86.5,68.7,48.6,52.0,42.3,36.7,80,45,18,30.18,30.07,6,0,11,0.00
2013-5-15,88.3,71.8,55.0,61.9,52.0,47.1,83,54,26,30.18,30.01,8,0,8,0.00
2013-5-16,88.5,75.0,60.1,63.1,58.0,52.7,83,58,30,30.09,29.95,7,0,9,0.00
2013-5-17,92.7,78.2,63.9,65.1,59.6,52.7,81,56,27,30.05,29.96,7,1,9,0.00
2013-5-18,94.6,79.4,67.1,70.3,64.4,58.3,84,63,31,30.07,29.94,9,1,11,0.00
2013-5-19,92.3,79.7,70.3,71.1,65.2,55.0,87,64,31,30.04,29.92,7,1,12,0.00
2013-5-20,92.5,76.8,70.2,74.3,67.0,63.3,85,73,40,30.03,29.93,12,1,16,0.19
2013-5-21,91.0,75.2,67.8,71.4,66.4,62.4,89,76,41,29.98,29.89,8,0,18,0.05
2013-5-22,86.5,74.4,66.9,72.9,67.6,63.3,90,80,56,29.92,29.83,4,0,9,0.02
2013-5-23,92.7,78.7,66.7,73.6,66.3,61.7,89,68,42,29.94,29.87,10,1,11,0.00
2013-5-24,97.5,80.7,68.5,73.4,64.7,56.8,89,63,27,30.04,29.91,7,0,14,0.00
2013-5-25,92.3,76.5,62.1,68.7,57.7,52.7,86,56,27,30.14,30.03,6,1,14,0.00
2013-5-26,90.3,74.7,58.5,63.3,53.0,47.5,83,51,24,30.17,30.06,8,1,11,0.00
2013-5-27,90.1,75.4,59.4,65.3,56.2,50.5,83,55,28,30.14,30.03,8,1,14,0.00
2013-5-28,92.1,77.4,63.1,68.0,62.9,56.5,84,63,39,30.10,29.98,8,1,14,0.00
2013-5-29,89.8,78.8,69.8,72.1,67.1,64.2,87,69,45,30.07,29.99,10,2,14,0.03
2013-5-30,89.2,78.4,70.3,72.5,67.8,65.5,89,71,48,30.06,29.98,14,2,18,0.00
2013-5-31,90.0,78.9,69.3,70.5,67.4,64.9,87,69,49,30.06,29.96,12,2,19,0.00
2013-6-1,90.1,79.3,69.8,71.8,68.2,63.5,87,70,51,30.02,29.90,12,1,16,0.01
2013-6-2,95.4,81.0,71.6,73.2,69.4,66.9,89,70,43,29.97,29.81,12,1,12,0.00
2013-6-3,88.5,80.1,73.6,73.8,70.3,68.5,87,73,54,29.94,29.83,11,1,13,0.01
2013-6-4,89.1,77.3,72.3,73.9,70.5,68.0,89,80,55,29.98,29.88,11,0,16,0.05
2013-6-5,89.4,77.3,71.6,74.3,68.5,63.3,89,76,45,29.96,29.85,9,1,12,0.01
2013-6-6,79.2,74.3,71.1,73.8,70.0,67.6,92,87,79,29.85,29.53,18,3,21,1.55
2013-6-7,88.3,79.0,71.1,73.0,69.6,67.3,89,74,52,29.90,29.68,15,2,16,0.04
2013-6-8,91.8,78.1,71.6,74.5,70.5,68.0,90,79,51,30.03,29.89,17,1,17,0.99
2013-6-9,91.0,76.9,70.3,75.0,70.4,67.6,92,81,52,30.06,29.95,12,0,12,2.07
2013-6-10,90.3,77.8,71.1,76.3,71.7,67.8,92,82,54,30.05,29.96,12,0,17,0.78
2013-6-11,92.3,78.0,72.7,76.5,71.4,66.4,90,81,54,30.04,29.97,17,0,21,0.71
2013-6-12,95.2,81.7,71.2,77.4,71.4,68.2,91,73,43,30.03,29.94,9,0,11,0.00
2013-6-13,92.8,82.1,73.0,76.3,71.1,68.9,89,71,48,29.98,29.84,10,1,11,0.00
2013-6-14,89.8,80.5,74.1,74.5,72.2,70.2,88,77,55,29.88,29.80,11,1,12,0.00
2013-6-15,84.6,79.0,75.4,75.9,73.1,68.5,89,82,74,30.01,29.85,8,0,11,0.99
2013-6-16,90.1,79.7,73.9,75.9,72.1,69.1,88,78,59,30.04,29.96,7,0,8,0.03
2013-6-17,93.4,82.5,74.1,76.6,72.2,69.1,90,73,49,30.02,29.92,11,0,11,0.00
2013-6-18,91.6,82.2,73.8,74.8,71.0,68.7,88,71,49,29.99,29.90,12,1,12,0.00
2013-6-19,94.5,82.9,74.5,75.2,70.4,66.7,88,68,44,29.98,29.90,8,0,11,0.00
2013-6-20,94.8,82.4,73.9,75.9,69.7,64.2,88,68,37,30.03,29.95,8,0,11,0.00
2013-6-21,93.2,78.1,70.3,73.6,69.4,65.8,89,76,47,30.06,29.99,13,0,13,0.07
2013-6-22,88.0,77.3,70.3,74.3,70.1,66.6,90,79,57,30.07,30.01,7,0,8,0.12
2013-6-23,93.6,80.9,71.8,74.7,69.9,63.7,89,71,40,30.09,30.02,10,0,11,0.00
2013-6-24,93.7,83.1,72.9,74.5,70.1,64.2,87,67,39,30.14,29.99,7,1,8,0.00
2013-6-25,95.5,83.9,73.9,73.9,68.7,59.5,85,63,33,30.10,29.96,11,0,12,0.00
2013-6-26,97.2,80.9,71.8,75.6,69.8,67.3,89,71,40,30.07,29.94,12,0,13,2.13
2013-6-27,90.5,78.1,70.3,76.6,71.4,67.3,91,81,58,29.99,29.87,7,0,8,0.06
2013-6-28,90.3,81.6,75.4,75.7,72.5,71.2,88,75,56,29.91,29.77,7,1,14,0.00
2013-6-29,87.3,80.2,75.7,74.3,71.8,69.1,89,76,61,29.82,29.72,7,1,12,0.05
2013-6-30,84.9,76.7,74.1,75.7,72.3,70.7,90,86,71,29.81,29.73,7,0,9,0.28
2013-7-1,82.8,76.2,72.5,75.4,71.5,68.7,91,86,74,29.96,29.78,11,1,14,0.30
2013-7-2,88.9,75.7,72.0,75.9,71.1,68.2,92,86,58,30.04,29.91,19,1,19,1.74
2013-7-3,88.9,76.0,71.2,76.6,70.8,68.2,92,84,60,30.07,29.99,15,0,16,0.17
2013-7-4,87.4,76.1,71.4,76.1,70.6,67.3,92,84,62,30.12,30.03,13,1,17,0.23
2013-7-5,88.9,77.5,70.9,76.3,71.2,67.5,92,82,59,30.10,30.02,13,1,14,0.39
2013-7-6,91.6,81.4,74.1,75.4,71.7,70.0,90,74,51,30.08,29.98,10,1,11,0.00
2013-7-7,92.1,82.5,73.6,74.8,70.5,67.5,88,69,49,30.09,29.98,12,1,12,0.00
2013-7-8,92.8,83.0,74.7,75.6,71.3,68.7,88,69,49,30.11,30.01,8,0,12,0.00
2013-7-9,94.3,83.0,73.2,74.5,69.3,66.4,87,65,42,30.12,29.99,6,0,7,0.00
2013-7-10,94.5,81.4,71.1,74.8,69.3,66.4,88,69,43,30.04,29.89,6,0,8,0.87
2013-7-11,88.3,78.4,72.7,77.4,72.0,69.3,91,81,59,29.98,29.87,7,0,12,1.15
2013-7-12,84.7,76.5,73.2,75.6,71.9,68.0,90,86,67,29.91,29.83,7,0,12,1.05
2013-7-13,88.5,76.4,72.3,75.0,71.1,67.8,91,84,56,29.94,29.84,10,0,12,0.94
2013-7-14,90.5,78.8,72.5,74.7,71.5,69.4,91,79,55,30.03,29.91,21,1,21,0.00
2013-7-15,89.4,78.0,72.5,75.6,71.2,68.5,88,80,56,30.07,29.97,12,0,16,0.23
2013-7-16,88.3,78.3,73.2,74.5,71.0,68.7,90,79,55,30.12,30.04,11,1,13,0.02
2013-7-17,90.7,79.6,72.9,76.1,70.8,68.4,91,76,50,30.12,30.03,12,1,14,0.00
2013-7-18,87.4,79.2,73.2,74.7,70.8,68.7,89,76,58,30.07,29.98,10,0,10,0.00
2013-7-19,89.1,77.0,72.1,73.9,70.2,67.5,90,80,58,30.08,29.98,13,0,19,1.17
2013-7-20,88.0,76.4,71.8,76.8,71.1,66.7,92,84,62,30.06,29.95,11,0,11,0.11
2013-7-21,91.8,79.7,72.3,77.9,72.3,68.9,92,79,54,30.06,29.98,7,0,9,0.01
2013-7-22,88.9,80.6,75.9,77.0,73.3,70.0,90,79,60,30.06,29.99,8,0,12,0.02
2013-7-23,78.6,75.6,74.1,74.8,71.8,69.1,91,88,81,30.03,29.90,7,0,9,0.53
2013-7-24,85.6,78.1,71.6,77.0,73.7,68.4,93,87,71,29.93,29.82,10,0,13,1.07
2013-7-25,82.6,78.2,74.8,76.8,73.1,70.3,90,84,75,29.93,29.80,11,0,14,0.17
2013-7-26,94.6,80.9,73.2,83.1,73.5,70.2,92,79,57,29.96,29.89,10,-67,10,0.02
2013-7-27,92.5,82.1,74.5,78.8,70.8,63.7,88,71,39,29.95,29.84,8,0,8,0.00
2013-7-28,88.3,77.3,72.3,78.1,71.6,66.7,88,83,63,30.00,29.88,7,-3,10,2.03
2013-7-29,93.9,81.0,71.8,76.6,71.3,67.1,92,75,44,30.09,29.97,5,-30,6,0.00
2013-7-30,87.4,78.6,75.4,72.9,70.6,68.7,85,77,59,30.10,30.03,2,-87,2,0.00
2013-7-31,81.9,76.1,74.7,72.0,70.3,69.1,85,82,71,30.09,29.97,2,-153,2,0.11
2013-8-1,88.0,77.1,73.9,77.2,72.3,68.2,89,85,67,29.95,29.91,3,-58,10,0.30
2013-8-2,75.0,73.3,72.3,72.0,70.1,69.3,90,90,89,29.94,29.90,1,-19,1,0.00
2013-8-6,81.0,78.3,74.5,74.1,72.7,70.7,88,83,80,29.89,29.87,0,-588,0,0.00
2013-8-10,90.7,84.1,80.4,73.2,71.9,70.9,78,67,53,30.06,29.99,0,-54,2,0.00
2013-8-11,96.8,85.1,76.3,75.0,71.5,66.7,88,66,39,30.10,30.00,7,0,8,0.00
2013-8-12,97.2,84.0,74.1,76.1,72.5,68.9,87,70,47,30.08,29.94,4,0,7,0.00
2013-8-13,95.2,82.3,75.4,79.3,73.5,71.2,88,76,51,29.99,29.87,7,0,12,0.05
2013-8-14,97.3,83.7,76.3,77.4,72.4,67.6,89,71,40,29.95,29.84,10,0,12,0.00
2013-8-15,94.8,80.6,73.8,74.5,71.1,68.7,88,75,44,29.96,29.86,11,0,12,0.17
2013-8-16,88.3,79.9,74.5,77.2,72.8,69.3,91,80,58,29.99,29.91,7,0,11,0.09
2013-8-17,93.7,80.7,74.1,77.5,72.3,69.3,87,77,50,30.04,29.91,7,0,12,0.64
2013-8-18,91.8,79.6,73.2,78.1,72.9,69.4,92,81,55,30.04,29.96,8,0,11,0.12
2013-8-19,94.8,82.8,74.7,77.2,72.6,68.2,91,73,45,30.03,29.90,7,0,10,0.02
2013-8-20,94.8,80.8,72.9,77.0,71.1,68.5,88,74,44,30.05,29.92,8,0,12,0.09
2013-8-21,93.7,77.8,72.7,76.8,71.8,67.6,91,82,52,30.06,29.99,12,0,14,0.16
2013-8-22,93.4,78.7,74.7,78.6,73.0,68.7,92,84,52,30.04,29.93,15,0,18,0.18
2013-8-23,89.1,77.1,71.8,78.6,72.3,68.4,92,86,61,29.99,29.91,7,0,8,0.47
2013-8-24,91.2,77.6,71.8,78.3,72.1,68.4,92,84,60,30.07,29.95,10,-3,18,0.21
2013-8-25,88.2,78.6,73.9,76.8,72.2,68.5,92,82,62,30.13,30.04,8,0,11,0.01
2013-8-26,91.4,80.3,73.2,75.7,71.3,68.7,90,75,54,30.10,29.96,10,0,11,0.00
2013-8-27,90.7,80.4,72.7,74.3,69.6,66.7,89,71,49,30.03,29.93,7,0,8,0.00
2013-8-28,93.9,81.3,70.3,73.6,67.8,63.9,88,66,38,30.01,29.91,7,0,7,0.00
2013-8-29,95.2,82.9,72.5,74.1,71.1,67.3,87,69,44,29.98,29.87,6,0,10,0.00
2013-8-30,98.1,83.3,73.2,77.0,71.5,68.2,87,70,38,29.93,29.83,6,0,7,0.00
2013-8-31,91.8,81.5,74.8,76.1,71.5,68.2,88,73,48,29.91,29.81,8,0,12,0.00
2013-9-1,94.5,82.2,73.2,74.8,69.8,63.3,88,69,38,29.93,29.84,8,0,10,0.00
2013-9-2,94.6,81.8,73.0,75.2,70.4,68.4,88,70,45,29.95,29.86,8,1,10,0.00
2013-9-3,90.3,80.8,73.8,76.5,72.3,69.1,88,76,58,29.96,29.86,6,0,7,0.04
2013-9-4,94.3,80.2,72.0,77.5,71.5,67.8,89,77,45,30.04,29.92,11,0,18,0.59
2013-9-5,95.9,81.4,70.3,77.5,71.0,66.9,93,73,44,30.05,29.94,6,0,7,0.29
2013-9-6,95.4,78.7,71.2,76.1,70.5,67.1,89,77,48,30.00,29.90,9,0,12,0.37
2013-9-7,93.4,77.4,70.0,75.6,70.5,66.0,92,80,48,29.97,29.88,10,0,16,0.22
2013-9-8,92.5,79.7,69.6,74.8,68.2,65.1,91,70,42,29.93,29.83,6,0,7,0.03
2013-9-9,92.1,79.8,68.9,72.7,66.8,62.2,88,67,38,29.99,29.89,7,0,8,0.00
2013-9-10,91.0,79.7,70.9,72.9,68.1,63.0,88,70,41,30.06,29.96,10,1,13,0.00
2013-9-11,90.7,80.3,73.2,74.3,70.2,68.2,89,73,51,30.04,29.94,16,1,16,0.00
2013-9-12,92.8,79.7,72.0,75.7,69.5,67.1,89,73,45,29.98,29.82,8,0,12,0.00
2013-9-13,95.9,79.2,71.4,76.1,70.0,67.1,90,75,42,29.86,29.74,7,0,8,0.06
2013-9-14,91.4,80.9,72.3,77.0,71.6,68.4,90,75,53,29.93,29.78,5,0,6,0.00
2013-9-15,91.8,79.0,73.6,76.1,71.1,67.6,88,78,54,30.03,29.92,18,1,18,0.47
2013-9-16,92.5,80.2,73.2,76.5,71.0,67.5,91,75,48,30.04,29.91,8,0,12,0.00
2013-9-17,90.3,79.4,71.8,75.4,70.3,67.6,89,75,55,30.01,29.90,11,1,12,0.02
2013-9-18,90.3,77.8,72.9,74.7,70.4,68.4,90,79,54,30.00,29.93,12,1,16,0.22
2013-9-19,91.4,79.1,71.8,73.6,69.4,67.3,90,74,48,30.01,29.91,11,0,13,0.00
2013-9-20,90.1,79.0,68.4,71.8,66.8,64.4,89,68,44,29.98,29.84,7,0,9,0.00
2013-9-21,91.0,78.3,70.3,71.8,68.3,65.3,88,73,44,29.89,29.71,6,0,6,0.04
2013-9-22,85.8,78.0,73.2,77.2,72.4,69.4,90,83,68,29.80,29.70,6,0,8,0.15
2013-9-23,82.4,75.9,73.6,77.0,72.4,70.7,91,89,81,29.89,29.77,7,0,7,0.29
2013-9-24,82.8,76.0,73.2,75.7,72.2,68.5,93,88,76,29.89,29.76,14,0,14,0.94
2013-9-25,81.3,75.8,71.1,73.6,71.5,68.0,92,87,74,29.79,29.71,11,1,11,0.22
2013-9-26,90.5,80.1,71.2,77.2,70.9,64.9,92,76,45,29.84,29.71,7,0,10,0.16
2013-9-27,84.7,74.8,67.8,70.9,66.8,63.9,89,77,59,29.94,29.83,8,0,12,0.00
2013-9-28,84.0,73.2,68.5,72.3,67.8,64.2,89,83,67,29.97,29.88,8,0,13,0.53
2013-9-29,88.2,75.5,66.7,72.7,66.5,63.3,91,75,50,29.96,29.85,7,0,10,0.00
2013-9-30,85.6,76.5,69.4,72.1,67.9,64.9,88,75,58,29.96,29.87,6,0,8,0.00
2013-10-1,90.7,77.7,69.8,71.6,67.7,65.1,87,72,48,30.02,29.92,8,1,12,0.00
2013-10-2,89.1,77.2,67.6,71.6,65.5,62.8,86,69,49,30.02,29.94,8,0,8,0.00
2013-10-3,90.1,78.4,68.7,71.6,67.3,63.0,88,70,48,30.03,29.93,6,0,8,0.00
2013-10-4,92.7,80.5,71.6,74.1,68.7,64.8,87,69,41,30.04,29.94,5,0,6,0.00
2013-10-5,92.3,79.2,68.7,73.6,68.0,64.0,87,70,44,30.02,29.90,6,0,7,0.00
2013-10-6,91.6,79.1,71.1,75.0,68.9,65.7,89,73,45,29.95,29.80,6,0,7,0.00
2013-10-7,80.8,75.9,73.2,76.8,71.6,67.8,90,87,80,29.82,29.66,6,0,9,0.65
2013-10-8,87.1,77.0,72.0,76.6,71.1,65.8,91,83,63,29.92,29.72,8,0,10,0.00
2013-10-9,79.9,71.9,65.8,67.3,64.0,60.6,84,77,63,30.00,29.91,7,0,9,0.00
2013-10-10,88.5,73.8,62.2,67.6,62.0,58.3,89,69,42,30.02,29.92,5,0,10,0.00
2013-10-11,88.9,74.0,63.5,69.1,62.3,56.8,89,69,37,30.00,29.89,9,0,9,0.00
2013-10-12,90.0,74.1,62.1,70.9,61.1,57.7,89,67,38,30.00,29.91,6,0,7,0.00
2013-10-13,90.0,74.6,63.1,66.9,60.7,55.4,85,65,32,30.04,29.94,6,0,6,0.00
2013-10-14,88.2,73.6,63.7,69.3,62.5,58.8,88,70,42,30.01,29.89,7,0,7,0.00
2013-10-15,77.4,70.7,64.9,68.7,64.9,59.7,88,82,73,29.96,29.87,3,0,5,0.00
2013-10-16,87.3,74.9,68.9,70.9,65.4,60.1,87,74,41,29.94,29.84,4,0,6,0.00
2013-10-17,90.1,76.2,67.8,73.6,66.4,62.8,89,73,47,29.94,29.84,5,0,6,0.00
2013-10-18,91.2,77.4,67.1,72.0,67.2,62.8,89,73,44,29.94,29.83,8,0,8,0.00
2013-10-19,87.4,77.9,70.9,74.1,69.6,66.6,88,76,58,29.90,29.81,7,0,10,0.03
2013-10-20,88.9,77.2,70.9,73.4,69.7,64.9,90,79,55,29.93,29.81,6,0,7,0.04
2013-10-21,92.1,77.1,69.1,74.8,68.8,64.0,88,76,54,29.95,29.86,5,0,6,0.00
2013-10-22,90.5,78.6,73.0,74.5,69.1,61.5,89,74,40,29.91,29.76,11,1,13,0.00
2013-10-23,82.8,71.9,61.0,68.4,60.2,48.7,90,69,35,29.99,29.76,6,0,6,0.27
2013-10-24,74.1,61.1,54.5,51.4,46.6,42.4,75,60,33,30.14,29.98,6,0,7,0.00
2013-10-25,83.8,65.6,50.7,59.4,50.6,45.7,88,62,31,30.21,30.10,8,0,8,0.00
2013-10-26,81.1,62.6,49.8,55.9,49.7,44.6,84,66,31,30.18,30.06,6,0,6,0.00
2013-10-27,80.8,63.6,52.0,57.6,47.7,37.6,87,62,22,30.11,30.01,5,0,8,0.00
2013-10-28,85.8,66.5,51.6,62.8,52.5,46.6,88,65,26,30.16,30.06,4,0,5,0.00
2013-10-29,84.4,69.7,56.7,65.8,58.7,52.5,88,70,45,30.19,30.10,12,0,12,0.00
2013-10-30,87.1,72.1,61.0,68.7,61.4,55.9,88,71,43,30.19,30.06,5,0,11,0.00
2013-10-31,85.8,73.6,63.1,69.4,61.9,57.0,89,69,38,30.09,29.91,6,0,9,0.01
2013-11-1,86.4,75.4,66.6,69.8,66.1,61.3,88,74,50,29.94,29.80,11,1,14,0.00
2013-11-2,75.0,69.1,59.4,70.5,64.9,55.8,91,87,83,29.93,29.73,8,0,8,0.69
2013-11-3,75.7,61.6,51.1,56.8,49.7,42.1,91,69,32,30.10,29.93,11,0,12,0.01
2013-11-4,79.0,67.7,56.7,60.8,55.3,47.7,83,66,44,30.15,30.08,12,1,14,0.00
2013-11-5,82.8,70.6,63.0,67.5,62.0,58.6,89,76,48,30.13,30.04,14,1,17,0.01
2013-11-6,81.9,70.9,62.6,68.7,63.4,59.4,90,78,58,30.09,30.00,8,0,10,0.02
2013-11-7,84.9,71.8,65.7,69.6,64.2,60.4,89,78,50,30.02,29.91,5,0,6,0.00
2013-11-8,77.0,65.5,56.3,63.0,55.3,45.9,85,71,54,30.10,29.96,13,0,13,0.00
2013-11-9,80.8,67.2,55.9,62.6,57.2,50.9,86,72,51,30.15,30.06,10,0,10,0.00
2013-11-10,84.6,70.6,61.0,66.4,60.6,55.6,88,72,47,30.14,30.04,6,0,7,0.00
2013-11-11,82.8,69.1,58.1,64.8,59.4,54.3,88,73,47,30.13,30.02,6,0,8,0.00
2013-11-12,83.8,68.8,60.6,68.4,59.9,52.0,89,74,54,30.08,29.95,6,0,6,0.00
2013-11-13,62.6,55.8,47.7,51.8,43.8,39.7,74,64,53,30.31,30.05,16,1,17,0.00
2013-11-14,73.9,58.3,44.2,54.7,47.4,38.5,83,68,48,30.29,30.15,11,1,11,0.00
2013-11-15,67.8,62.0,55.8,63.0,57.9,50.2,90,87,80,30.17,30.03,7,0,7,0.18
2013-11-16,72.5,66.9,63.0,68.0,63.8,60.1,92,90,85,30.11,30.01,4,0,5,0.75
2013-11-17,83.1,73.1,67.5,72.3,67.7,64.9,93,84,66,30.04,29.94,7,0,7,0.11
2013-11-18,77.4,71.8,66.4,71.1,66.9,62.8,90,85,76,29.98,29.86,6,0,7,0.09
2013-11-19,76.3,67.4,58.3,67.1,58.8,52.0,91,75,52,29.96,29.84,7,0,8,0.02
2013-11-20,72.9,66.3,60.4,66.9,61.6,54.7,88,85,80,30.09,29.94,5,0,7,0.01
2013-11-21,76.8,70.5,64.9,69.1,65.2,61.3,90,83,74,30.16,30.07,11,1,11,0.01
2013-11-22,81.1,71.9,66.0,69.1,65.3,60.6,90,80,62,30.17,30.06,8,0,10,0.01
2013-11-23,86.7,70.7,60.4,69.4,61.3,56.8,90,74,42,30.08,29.96,6,0,6,0.00
2013-11-24,67.5,61.0,53.8,62.1,52.4,44.2,85,73,63,30.24,30.00,10,1,14,0.00
2013-11-25,72.9,63.3,54.1,56.8,52.6,45.0,80,69,53,30.22,30.04,9,1,13,0.00
2013-11-26,78.3,71.2,63.9,70.5,65.6,56.5,90,83,72,30.04,29.68,10,1,13,0.64
2013-11-27,69.6,56.2,40.6,66.9,50.9,34.7,91,82,73,30.18,29.64,13,1,17,0.82
2013-11-28,66.0,48.5,34.2,46.8,38.9,28.8,82,71,49,30.34,30.18,6,0,11,0.00
2013-11-29,73.9,56.9,46.6,56.7,48.2,41.5,89,74,48,30.36,30.25,7,0,10,0.00
2013-11-30,74.8,61.1,50.7,61.7,53.8,43.5,87,77,61,30.30,30.18,6,0,13,0.00
2013-12-1,76.1,62.9,56.8,65.8,56.9,52.0,91,82,60,30.18,29.95,6,0,6,0.00
2013-12-2,72.9,60.4,52.9,61.3,52.5,46.9,90,77,46,29.95,29.79,8,0,10,0.00
2013-12-3,76.1,63.1,51.6,63.0,55.1,46.8,90,76,56,29.94,29.83,7,0,7,0.00
2013-12-4,81.3,67.8,57.9,69.1,60.9,54.3,91,79,59,30.04,29.91,5,0,5,0.00
2013-12-5,84.0,69.7,59.0,68.9,60.8,55.4,90,75,52,30.13,30.03,6,0,8,0.01
2013-12-6,84.7,71.5,61.9,70.2,63.0,57.2,89,76,53,30.12,30.04,13,0,13,0.00
2013-12-7,86.5,72.2,63.7,69.3,62.8,58.3,89,74,47,30.19,30.09,5,0,6,0.00
2013-12-8,83.5,71.0,61.0,71.1,62.5,56.5,90,76,55,30.19,30.05,7,0,8,0.01
2013-12-9,84.7,72.2,62.4,70.7,63.8,58.5,89,76,54,30.13,30.03,7,0,8,0.00
2013-12-10,84.4,71.0,61.9,68.7,63.5,55.6,90,78,52,30.17,30.01,10,1,10,0.05
2013-12-11,83.8,66.1,53.4,64.6,55.9,46.8,83,71,51,30.23,30.12,8,0,8,0.05
2013-12-12,72.7,60.2,47.7,56.1,42.4,27.1,85,57,22,30.31,30.18,8,0,10,0.00
2013-12-13,73.6,58.0,44.8,53.2,46.1,36.9,82,66,45,30.26,30.07,8,0,8,0.00
2013-12-14,78.6,67.0,55.2,68.2,61.2,48.7,88,82,68,30.07,29.86,12,0,16,0.11
2013-12-15,72.9,63.2,52.2,68.4,58.7,46.9,91,85,75,30.11,29.81,11,1,13,0.91
2013-12-16,66.7,51.9,41.7,48.2,40.7,35.6,87,68,37,30.21,30.11,8,0,8,0.00
2013-12-17,74.1,52.7,39.6,48.2,38.7,34.9,86,64,27,30.25,30.12,6,0,8,0.00
2013-12-18,73.9,53.6,41.2,50.4,40.7,35.6,87,65,33,30.27,30.17,7,0,9,0.00
2013-12-19,76.6,55.5,39.7,55.2,44.2,33.3,87,68,42,30.27,30.14,6,0,7,0.00
2013-12-20,84.6,64.2,47.7,63.0,54.2,42.8,89,72,47,30.17,30.06,7,0,8,0.00
2013-12-21,84.6,70.6,59.4,69.1,61.1,53.8,89,73,53,30.09,29.96,13,0,13,0.00
2013-12-22,85.8,72.5,63.0,70.3,64.3,58.6,90,77,53,30.09,30.00,11,0,13,0.00
2013-12-23,85.1,73.5,64.2,71.6,66.4,60.3,92,79,55,30.11,30.01,10,1,12,0.00
2013-12-24,71.4,60.0,45.3,66.7,45.6,29.3,88,63,26,30.25,30.06,12,0,12,0.01
2013-12-25,72.5,55.1,40.1,54.3,44.0,31.3,85,67,51,30.24,30.12,8,0,8,0.00
2013-12-26,74.7,60.7,54.0,61.0,53.9,50.5,89,79,59,30.20,30.08,6,0,8,0.00
2013-12-27,63.9,58.6,54.3,59.5,54.5,49.6,89,86,83,30.25,30.15,7,0,7,0.02
2013-12-28,75.9,66.9,59.2,68.4,62.1,55.2,91,85,74,30.21,29.95,8,0,11,0.01
2013-12-29,73.2,68.5,58.6,69.8,64.7,55.9,91,88,84,29.97,29.85,11,0,12,0.33
2013-12-30,72.0,60.0,53.4,57.4,52.2,46.8,93,77,47,30.17,29.96,6,0,6,0.01
2013-12-31,71.1,58.9,51.6,54.0,48.8,46.6,87,71,45,30.28,30.13,6,0,7,0.00
2014-1-1,62.8,58.0,54.7,58.3,53.5,47.8,91,85,74,30.25,30.03,8,0,8,0.15
2014-1-2,66.9,62.7,55.0,64.4,60.3,52.5,93,92,91,30.03,29.78,11,0,11,0.36